sensor_id;sensor_type;location;lat;lon;timestamp;pressure;altitude;pressure_sealevel;temperature;humidity
11198;BME280;5655;48.744;9.162;2023-05-11T00:00:06;95895.31;;;13.09;100.00
11198;BME280;5655;48.744;9.162;2023-05-11T00:02:32;95891.03;;;13.26;100.00
11198;BME280;5655;48.744;9.162;2023-05-11T00:04:57;95884.56;;;13.12;100.00
11198;BME280;5655;48.744;9.162;2023-05-11T00:07:23;95877.25;;;13.09;100.00
11198;BME280;5655;48.744;9.162;2023-05-11T00:09:48;95878.78;;;13.17;100.00
11198;BME280;5655;48.744;9.162;2023-05-11T00:12:13;95881.44;;;13.25;100.00
11198;BME280;5655;48.744;9.162;2023-05-11T00:14:39;95882.16;;;13.36;100.00
11198;BME280;5655;48.744;9.162;2023-05-11T00:17:04;95881.88;;;13.20;100.00
11198;BME280;5655;48.744;9.162;2023-05-11T00:19:30;95879.25;;;12.98;100.00
11198;BME280;5655;48.744;9.162;2023-05-11T00:21:56;95884.53;;;13.23;100.00
11198;BME280;5655;48.744;9.162;2023-05-11T00:24:23;95889.19;;;13.15;100.00
11198;BME280;5655;48.744;9.162;2023-05-11T00:26:48;95875.34;;;13.10;100.00
11198;BME280;5655;48.744;9.162;2023-05-11T00:29:13;95883.78;;;13.19;100.00
11198;BME280;5655;48.744;9.162;2023-05-11T00:31:39;95884.50;;;13.27;100.00
11198;BME280;5655;48.744;9.162;2023-05-11T00:34:04;95879.94;;;13.16;100.00
11198;BME280;5655;48.744;9.162;2023-05-11T00:36:29;95879.19;;;13.09;100.00
11198;BME280;5655;48.744;9.162;2023-05-11T00:38:55;95871.88;;;13.16;100.00
11198;BME280;5655;48.744;9.162;2023-05-11T00:41:20;95879.19;;;13.20;100.00
11198;BME280;5655;48.744;9.162;2023-05-11T00:43:45;95877.59;;;13.26;100.00
11198;BME280;5655;48.744;9.162;2023-05-11T00:46:11;95882.22;;;13.29;100.00
11198;BME280;5655;48.744;9.162;2023-05-11T00:48:36;95880.31;;;13.18;100.00
11198;BME280;5655;48.744;9.162;2023-05-11T00:51:03;95881.44;;;13.25;100.00
11198;BME280;5655;48.744;9.162;2023-05-11T00:53:28;95885.66;;;13.26;100.00
11198;BME280;5655;48.744;9.162;2023-05-11T00:55:53;95873.81;;;13.09;100.00
11198;BME280;5655;48.744;9.162;2023-05-11T00:58:19;95877.66;;;13.04;100.00
11198;BME280;5655;48.744;9.162;2023-05-11T01:00:45;95873.00;;;13.23;100.00
11198;BME280;5655;48.744;9.162;2023-05-11T01:03:12;95862.69;;;13.07;100.00
11198;BME280;5655;48.744;9.162;2023-05-11T01:08:40;95874.56;;;13.20;100.00
11198;BME280;5655;48.744;9.162;2023-05-11T01:11:20;95872.59;;;13.31;100.00
11198;BME280;5655;48.744;9.162;2023-05-11T01:13:52;95879.94;;;13.16;100.00
11198;BME280;5655;48.744;9.162;2023-05-11T01:16:21;95878.38;;;13.26;100.00
11198;BME280;5655;48.744;9.162;2023-05-11T01:21:34;95880.28;;;13.26;100.00
11198;BME280;5655;48.744;9.162;2023-05-11T01:27:11;95884.59;;;12.95;100.00
11198;BME280;5655;48.744;9.162;2023-05-11T01:32:25;95880.34;;;13.08;100.00
11198;BME280;5655;48.744;9.162;2023-05-11T01:35:03;95878.44;;;13.01;100.00
11198;BME280;5655;48.744;9.162;2023-05-11T01:37:30;95882.66;;;12.99;100.00
11198;BME280;5655;48.744;9.162;2023-05-11T01:39:58;95881.50;;;13.03;100.00
11198;BME280;5655;48.744;9.162;2023-05-11T01:42:31;95880.75;;;13.06;100.00
11198;BME280;5655;48.744;9.162;2023-05-11T01:44:58;95881.97;;;12.84;100.00
11198;BME280;5655;48.744;9.162;2023-05-11T01:47:27;95883.06;;;12.90;100.00
11198;BME280;5655;48.744;9.162;2023-05-11T01:49:54;95878.44;;;13.15;100.00
11198;BME280;5655;48.744;9.162;2023-05-11T01:52:24;95878.81;;;13.14;100.00
11198;BME280;5655;48.744;9.162;2023-05-11T01:54:52;95885.69;;;13.18;100.00
11198;BME280;5655;48.744;9.162;2023-05-11T01:57:20;95872.66;;;13.10;100.00
11198;BME280;5655;48.744;9.162;2023-05-11T01:59:46;95880.69;;;13.21;100.00
11198;BME280;5655;48.744;9.162;2023-05-11T02:02:13;95878.78;;;13.21;100.00
11198;BME280;5655;48.744;9.162;2023-05-11T02:04:40;95869.25;;;12.95;100.00
11198;BME280;5655;48.744;9.162;2023-05-11T02:07:07;95873.50;;;12.89;100.00
11198;BME280;5655;48.744;9.162;2023-05-11T02:09:35;95870.47;;;12.77;100.00
11198;BME280;5655;48.744;9.162;2023-05-11T02:12:03;95866.22;;;12.83;100.00
11198;BME280;5655;48.744;9.162;2023-05-11T02:14:30;95877.69;;;12.97;100.00
11198;BME280;5655;48.744;9.162;2023-05-11T02:16:59;95886.50;;;13.15;100.00
11198;BME280;5655;48.744;9.162;2023-05-11T02:19:25;95881.53;;;12.96;100.00
11198;BME280;5655;48.744;9.162;2023-05-11T02:21:52;95883.81;;;13.01;100.00
11198;BME280;5655;48.744;9.162;2023-05-11T02:24:20;95876.16;;;12.96;100.00
11198;BME280;5655;48.744;9.162;2023-05-11T02:26:46;95876.53;;;12.95;100.00
11198;BME280;5655;48.744;9.162;2023-05-11T02:29:11;95872.28;;;13.04;100.00
11198;BME280;5655;48.744;9.162;2023-05-11T02:31:41;95882.22;;;13.22;100.00
11198;BME280;5655;48.744;9.162;2023-05-11T02:34:28;95875.34;;;13.13;100.00
11198;BME280;5655;48.744;9.162;2023-05-11T02:36:57;95881.06;;;13.23;100.00
11198;BME280;5655;48.744;9.162;2023-05-11T02:39:28;95865.75;;;13.05;100.00
11198;BME280;5655;48.744;9.162;2023-05-11T02:41:56;95872.28;;;13.18;100.00
11198;BME280;5655;48.744;9.162;2023-05-11T02:44:26;95874.56;;;13.16;100.00
11198;BME280;5655;48.744;9.162;2023-05-11T02:46:54;95865.75;;;13.09;100.00
11198;BME280;5655;48.744;9.162;2023-05-11T02:49:22;95871.53;;;13.14;100.00
11198;BME280;5655;48.744;9.162;2023-05-11T02:51:49;95873.44;;;13.14;100.00
11198;BME280;5655;48.744;9.162;2023-05-11T02:54:16;95869.56;;;13.18;100.00
11198;BME280;5655;48.744;9.162;2023-05-11T02:56:43;95869.59;;;13.08;100.00
11198;BME280;5655;48.744;9.162;2023-05-11T02:59:09;95869.28;;;12.88;100.00
11198;BME280;5655;48.744;9.162;2023-05-11T03:01:35;95866.53;;;13.13;100.00
11198;BME280;5655;48.744;9.162;2023-05-11T03:04:04;95864.25;;;13.11;100.00
11198;BME280;5655;48.744;9.162;2023-05-11T03:06:30;95857.72;;;13.02;100.00
11198;BME280;5655;48.744;9.162;2023-05-11T03:08:56;95858.50;;;12.95;100.00
11198;BME280;5655;48.744;9.162;2023-05-11T03:11:22;95852.75;;;12.97;100.00
11198;BME280;5655;48.744;9.162;2023-05-11T03:13:48;95852.41;;;12.84;100.00
11198;BME280;5655;48.744;9.162;2023-05-11T03:16:14;95845.06;;;12.95;100.00
11198;BME280;5655;48.744;9.162;2023-05-11T03:18:40;95845.41;;;13.04;100.00
11198;BME280;5655;48.744;9.162;2023-05-11T03:21:06;95846.97;;;13.02;100.00
11198;BME280;5655;48.744;9.162;2023-05-11T03:23:34;95840.78;;;13.08;100.00
11198;BME280;5655;48.744;9.162;2023-05-11T03:26:00;95833.91;;;13.11;100.00
11198;BME280;5655;48.744;9.162;2023-05-11T03:28:26;95846.75;;;13.48;100.00
11198;BME280;5655;48.744;9.162;2023-05-11T03:30:52;95849.94;;;13.32;100.00
11198;BME280;5655;48.744;9.162;2023-05-11T03:33:18;95848.38;;;13.35;100.00
11198;BME280;5655;48.744;9.162;2023-05-11T03:35:45;95846.75;;;13.48;100.00
11198;BME280;5655;48.744;9.162;2023-05-11T03:38:14;95845.63;;;13.42;100.00
11198;BME280;5655;48.744;9.162;2023-05-11T03:40:40;95845.09;;;13.68;100.00
11198;BME280;5655;48.744;9.162;2023-05-11T03:43:08;95857.78;;;13.68;100.00
11198;BME280;5655;48.744;9.162;2023-05-11T03:45:35;95852.13;;;13.48;100.00
11198;BME280;5655;48.744;9.162;2023-05-11T03:48:02;95850.28;;;13.96;100.00
11198;BME280;5655;48.744;9.162;2023-05-11T03:50:29;95847.22;;;13.91;100.00
11198;BME280;5655;48.744;9.162;2023-05-11T03:52:54;95852.56;;;13.98;100.00
11198;BME280;5655;48.744;9.162;2023-05-11T03:55:20;95858.69;;;13.98;100.00
11198;BME280;5655;48.744;9.162;2023-05-11T03:57:46;95855.59;;;14.03;100.00
11198;BME280;5655;48.744;9.162;2023-05-11T04:00:12;95848.25;;;14.07;100.00
11198;BME280;5655;48.744;9.162;2023-05-11T04:02:37;95855.44;;;14.21;100.00
11198;BME280;5655;48.744;9.162;2023-05-11T04:05:07;95857.28;;;13.83;100.00
11198;BME280;5655;48.744;9.162;2023-05-11T04:07:32;95841.47;;;13.37;100.00
11198;BME280;5655;48.744;9.162;2023-05-11T04:09:58;95829.25;;;13.22;100.00
11198;BME280;5655;48.744;9.162;2023-05-11T04:12:23;95827.00;;;12.99;100.00
11198;BME280;5655;48.744;9.162;2023-05-11T04:14:48;95823.19;;;12.97;100.00
11198;BME280;5655;48.744;9.162;2023-05-11T04:17:14;95824.75;;;12.94;100.00
11198;BME280;5655;48.744;9.162;2023-05-11T04:19:39;95828.16;;;13.05;100.00
11198;BME280;5655;48.744;9.162;2023-05-11T04:22:04;95827.78;;;13.07;100.00
11198;BME280;5655;48.744;9.162;2023-05-11T04:24:30;95827.38;;;13.08;100.00
11198;BME280;5655;48.744;9.162;2023-05-11T04:26:55;95833.91;;;13.04;100.00
11198;BME280;5655;48.744;9.162;2023-05-11T04:29:21;95827.06;;;12.92;100.00
11198;BME280;5655;48.744;9.162;2023-05-11T04:31:46;95831.63;;;13.02;100.00
11198;BME280;5655;48.744;9.162;2023-05-11T04:34:12;95825.16;;;12.93;100.00
11198;BME280;5655;48.744;9.162;2023-05-11T04:36:37;95836.59;;;13.11;100.00
11198;BME280;5655;48.744;9.162;2023-05-11T04:39:02;95836.69;;;12.90;100.00
11198;BME280;5655;48.744;9.162;2023-05-11T04:41:28;95834.75;;;12.94;100.00
11198;BME280;5655;48.744;9.162;2023-05-11T04:43:53;95833.97;;;12.93;100.00
11198;BME280;5655;48.744;9.162;2023-05-11T04:46:19;95832.50;;;12.71;100.00
11198;BME280;5655;48.744;9.162;2023-05-11T04:48:44;95832.84;;;12.87;100.00
11198;BME280;5655;48.744;9.162;2023-05-11T04:51:10;95839.34;;;12.93;100.00
11198;BME280;5655;48.744;9.162;2023-05-11T04:53:35;95837.00;;;12.95;100.00
11198;BME280;5655;48.744;9.162;2023-05-11T04:56:00;95833.22;;;12.86;100.00
11198;BME280;5655;48.744;9.162;2023-05-11T04:58:26;95838.59;;;12.89;100.00
11198;BME280;5655;48.744;9.162;2023-05-11T05:00:51;95836.63;;;13.00;100.00
11198;BME280;5655;48.744;9.162;2023-05-11T05:03:16;95840.06;;;13.04;100.00
11198;BME280;5655;48.744;9.162;2023-05-11T05:05:42;95840.13;;;12.94;100.00
11198;BME280;5655;48.744;9.162;2023-05-11T05:08:07;95836.22;;;13.05;100.00
11198;BME280;5655;48.744;9.162;2023-05-11T05:10:32;95843.94;;;12.96;100.00
11198;BME280;5655;48.744;9.162;2023-05-11T05:12:58;95842.75;;;13.04;100.00
11198;BME280;5655;48.744;9.162;2023-05-11T05:15:23;95842.34;;;13.09;100.00
11198;BME280;5655;48.744;9.162;2023-05-11T05:17:48;95839.25;;;13.07;100.00
11198;BME280;5655;48.744;9.162;2023-05-11T05:20:14;95846.19;;;13.12;100.00
11198;BME280;5655;48.744;9.162;2023-05-11T05:22:39;95837.81;;;12.92;100.00
11198;BME280;5655;48.744;9.162;2023-05-11T05:25:06;95840.84;;;13.01;100.00
11198;BME280;5655;48.744;9.162;2023-05-11T05:27:31;95840.09;;;12.97;100.00
11198;BME280;5655;48.744;9.162;2023-05-11T05:29:57;95846.94;;;13.09;100.00
11198;BME280;5655;48.744;9.162;2023-05-11T05:32:22;95850.03;;;13.04;100.00
11198;BME280;5655;48.744;9.162;2023-05-11T05:34:47;95852.34;;;13.02;100.00
11198;BME280;5655;48.744;9.162;2023-05-11T05:37:13;95853.88;;;13.03;100.00
11198;BME280;5655;48.744;9.162;2023-05-11T05:39:38;95857.34;;;12.96;100.00
11198;BME280;5655;48.744;9.162;2023-05-11T05:42:04;95856.16;;;13.04;100.00
11198;BME280;5655;48.744;9.162;2023-05-11T05:44:29;95861.56;;;13.11;100.00
11198;BME280;5655;48.744;9.162;2023-05-11T05:46:55;95857.75;;;12.98;100.00
11198;BME280;5655;48.744;9.162;2023-05-11T05:49:20;95867.63;;;13.23;100.00
11198;BME280;5655;48.744;9.162;2023-05-11T05:51:45;95860.75;;;13.07;100.00
11198;BME280;5655;48.744;9.162;2023-05-11T05:54:11;95865.38;;;13.03;100.00
11198;BME280;5655;48.744;9.162;2023-05-11T05:56:37;95869.25;;;13.02;100.00
11198;BME280;5655;48.744;9.162;2023-05-11T05:59:04;95873.06;;;13.01;100.00
11198;BME280;5655;48.744;9.162;2023-05-11T06:01:30;95880.00;;;13.02;100.00
11198;BME280;5655;48.744;9.162;2023-05-11T06:03:55;95875.34;;;13.13;100.00
11198;BME280;5655;48.744;9.162;2023-05-11T06:06:20;95874.22;;;13.00;100.00
11198;BME280;5655;48.744;9.162;2023-05-11T06:08:46;95865.75;;;13.09;100.00
11198;BME280;5655;48.744;9.162;2023-05-11T06:11:11;95872.69;;;13.06;100.00
11198;BME280;5655;48.744;9.162;2023-05-11T06:13:36;95876.16;;;13.10;100.00
11198;BME280;5655;48.744;9.162;2023-05-11T06:16:02;95881.81;;;13.30;100.00
11198;BME280;5655;48.744;9.162;2023-05-11T06:18:27;95877.25;;;13.20;100.00
11198;BME280;5655;48.744;9.162;2023-05-11T06:20:53;95868.84;;;13.14;100.00
11198;BME280;5655;48.744;9.162;2023-05-11T06:23:18;95877.25;;;13.20;100.00
11198;BME280;5655;48.744;9.162;2023-05-11T06:25:43;95892.25;;;13.14;100.00
11198;BME280;5655;48.744;9.162;2023-05-11T06:28:08;95884.88;;;13.25;100.00
11198;BME280;5655;48.744;9.162;2023-05-11T06:30:34;95884.56;;;13.20;100.00
11198;BME280;5655;48.744;9.162;2023-05-11T06:32:59;95881.50;;;13.14;100.00
11198;BME280;5655;48.744;9.162;2023-05-11T06:35:24;95888.41;;;13.04;100.00
11198;BME280;5655;48.744;9.162;2023-05-11T06:37:50;95881.47;;;13.17;100.00
11198;BME280;5655;48.744;9.162;2023-05-11T06:40:15;95875.34;;;13.17;100.00
11198;BME280;5655;48.744;9.162;2023-05-11T06:42:41;95879.50;;;13.32;100.00
11198;BME280;5655;48.744;9.162;2023-05-11T06:45:07;95878.38;;;13.23;100.00
11198;BME280;5655;48.744;9.162;2023-05-11T06:47:33;95879.13;;;13.27;100.00
11198;BME280;5655;48.744;9.162;2023-05-11T06:49:58;95876.84;;;13.29;100.00
11198;BME280;5655;48.744;9.162;2023-05-11T06:52:24;95888.16;;;13.61;100.00
11198;BME280;5655;48.744;9.162;2023-05-11T06:54:49;95890.56;;;13.45;100.00
11198;BME280;5655;48.744;9.162;2023-05-11T06:57:14;95877.56;;;13.29;100.00
11198;BME280;5655;48.744;9.162;2023-05-11T06:59:40;95880.63;;;13.35;100.00
11198;BME280;5655;48.744;9.162;2023-05-11T07:02:05;95873.75;;;13.27;100.00
11198;BME280;5655;48.744;9.162;2023-05-11T07:04:30;95877.25;;;13.24;100.00
11198;BME280;5655;48.744;9.162;2023-05-11T07:06:56;95888.69;;;13.35;100.00
11198;BME280;5655;48.744;9.162;2023-05-11T07:09:21;95886.84;;;13.21;100.00
11198;BME280;5655;48.744;9.162;2023-05-11T07:11:47;95889.84;;;13.34;100.00
11198;BME280;5655;48.744;9.162;2023-05-11T07:14:12;95888.31;;;13.29;100.00
11198;BME280;5655;48.744;9.162;2023-05-11T07:16:37;95887.56;;;13.32;100.00
11198;BME280;5655;48.744;9.162;2023-05-11T07:19:04;95895.53;;;13.46;100.00
11198;BME280;5655;48.744;9.162;2023-05-11T07:21:29;95887.09;;;13.48;100.00
11198;BME280;5655;48.744;9.162;2023-05-11T07:23:56;95874.44;;;13.45;100.00
11198;BME280;5655;48.744;9.162;2023-05-11T07:26:22;95881.34;;;13.49;100.00
11198;BME280;5655;48.744;9.162;2023-05-11T07:28:47;95884.28;;;13.69;100.00
11198;BME280;5655;48.744;9.162;2023-05-11T07:31:12;95890.53;;;13.52;100.00
11198;BME280;5655;48.744;9.162;2023-05-11T07:33:38;95894.34;;;13.58;100.00
11198;BME280;5655;48.744;9.162;2023-05-11T07:36:04;95887.75;;;13.66;100.00
11198;BME280;5655;48.744;9.162;2023-05-11T07:38:30;95884.34;;;13.62;100.00
11198;BME280;5655;48.744;9.162;2023-05-11T07:40:55;95880.47;;;13.59;100.00
11198;BME280;5655;48.744;9.162;2023-05-11T07:43:20;95884.34;;;13.62;100.00
11198;BME280;5655;48.744;9.162;2023-05-11T07:45:46;95891.09;;;13.81;100.00
11198;BME280;5655;48.744;9.162;2023-05-11T07:48:11;95901.81;;;13.91;100.00
11198;BME280;5655;48.744;9.162;2023-05-11T07:50:37;95900.19;;;13.46;100.00
11198;BME280;5655;48.744;9.162;2023-05-11T07:53:02;95895.13;;;13.58;100.00
11198;BME280;5655;48.744;9.162;2023-05-11T07:55:27;95888.25;;;13.47;100.00
11198;BME280;5655;48.744;9.162;2023-05-11T07:57:54;95892.72;;;13.71;100.00
11198;BME280;5655;48.744;9.162;2023-05-11T08:00:20;95880.91;;;13.58;100.00
11198;BME280;5655;48.744;9.162;2023-05-11T08:02:46;95889.81;;;13.41;100.00
11198;BME280;5655;48.744;9.162;2023-05-11T08:05:11;95891.59;;;13.65;100.00
11198;BME280;5655;48.744;9.162;2023-05-11T08:07:36;95883.59;;;13.51;100.00
11198;BME280;5655;48.744;9.162;2023-05-11T08:10:02;95878.22;;;13.58;100.00
11198;BME280;5655;48.744;9.162;2023-05-11T08:12:27;95887.38;;;13.64;100.00
11198;BME280;5655;48.744;9.162;2023-05-11T08:14:52;95890.66;;;13.89;100.00
11198;BME280;5655;48.744;9.162;2023-05-11T08:17:18;95882.97;;;13.91;100.00
11198;BME280;5655;48.744;9.162;2023-05-11T08:19:43;95879.28;;;13.71;100.00
11198;BME280;5655;48.744;9.162;2023-05-11T08:22:08;95877.66;;;13.81;100.00
11198;BME280;5655;48.744;9.162;2023-05-11T08:24:34;95871.09;;;13.85;100.00
11198;BME280;5655;48.744;9.162;2023-05-11T08:26:59;95860.31;;;13.92;100.00
11198;BME280;5655;48.744;9.162;2023-05-11T08:29:24;95861.88;;;13.86;100.00
11198;BME280;5655;48.744;9.162;2023-05-11T08:31:53;95864.22;;;13.84;100.00
11198;BME280;5655;48.744;9.162;2023-05-11T08:34:18;95864.22;;;13.84;100.00
11198;BME280;5655;48.744;9.162;2023-05-11T08:36:44;95866.47;;;13.86;100.00
11198;BME280;5655;48.744;9.162;2023-05-11T08:39:09;95877.19;;;13.96;100.00
11198;BME280;5655;48.744;9.162;2023-05-11T08:41:34;95868.88;;;13.73;100.00
11198;BME280;5655;48.744;9.162;2023-05-11T08:44:00;95878.88;;;13.76;100.00
11198;BME280;5655;48.744;9.162;2023-05-11T08:46:28;95871.16;;;13.78;100.00
11198;BME280;5655;48.744;9.162;2023-05-11T08:48:54;95869.72;;;13.63;100.00
11198;BME280;5655;48.744;9.162;2023-05-11T08:51:21;95858.50;;;13.75;100.00
11198;BME280;5655;48.744;9.162;2023-05-11T08:53:47;95869.53;;;13.91;100.00
11198;BME280;5655;48.744;9.162;2023-05-11T08:56:13;95860.53;;;13.57;100.00
11198;BME280;5655;48.744;9.162;2023-05-11T08:58:40;95859.72;;;13.67;100.00
11198;BME280;5655;48.744;9.162;2023-05-11T09:01:09;95853.50;;;13.74;100.00
11198;BME280;5655;48.744;9.162;2023-05-11T09:03:34;95864.97;;;13.81;100.00
11198;BME280;5655;48.744;9.162;2023-05-11T09:06:03;95864.34;;;13.63;100.00
11198;BME280;5655;48.744;9.162;2023-05-11T09:08:33;95857.75;;;13.71;100.00
11198;BME280;5655;48.744;9.162;2023-05-11T09:10:59;95859.72;;;13.63;100.00
11198;BME280;5655;48.744;9.162;2023-05-11T09:13:25;95867.41;;;13.65;100.00
11198;BME280;5655;48.744;9.162;2023-05-11T09:15:51;95863.56;;;13.66;100.00
11198;BME280;5655;48.744;9.162;2023-05-11T09:18:16;95866.72;;;13.50;100.00
11198;BME280;5655;48.744;9.162;2023-05-11T09:20:43;95865.06;;;13.71;100.00
11198;BME280;5655;48.744;9.162;2023-05-11T09:23:08;95856.59;;;13.72;100.00
11198;BME280;5655;48.744;9.162;2023-05-11T09:25:34;95858.47;;;13.79;100.00
11198;BME280;5655;48.744;9.162;2023-05-11T09:28:03;95859.75;;;13.60;100.00
11198;BME280;5655;48.744;9.162;2023-05-11T09:30:28;95866.47;;;13.86;100.00
11198;BME280;5655;48.744;9.162;2023-05-11T09:32:58;95867.31;;;13.79;100.00
11198;BME280;5655;48.744;9.162;2023-05-11T09:35:29;95875.84;;;13.67;100.00
11198;BME280;5655;48.744;9.162;2023-05-11T09:38:02;95878.84;;;13.80;100.00
11198;BME280;5655;48.744;9.162;2023-05-11T09:40:30;95871.84;;;13.89;100.00
11198;BME280;5655;48.744;9.162;2023-05-11T09:42:56;95879.09;;;13.96;100.00
11198;BME280;5655;48.744;9.162;2023-05-11T09:48:00;95873.78;;;13.89;100.00
11198;BME280;5655;48.744;9.162;2023-05-11T09:50:31;95879.06;;;13.99;100.00
11198;BME280;5655;48.744;9.162;2023-05-11T09:52:57;95883.44;;;13.79;100.00
11198;BME280;5655;48.744;9.162;2023-05-11T09:55:23;95868.09;;;13.80;100.00
11198;BME280;5655;48.744;9.162;2023-05-11T09:57:53;95871.47;;;13.87;100.00
11198;BME280;5655;48.744;9.162;2023-05-11T10:00:19;95871.38;;;14.01;100.00
11198;BME280;5655;48.744;9.162;2023-05-11T10:02:45;95874.53;;;13.89;100.00
11198;BME280;5655;48.744;9.162;2023-05-11T10:05:22;95867.09;;;14.07;100.00
11198;BME280;5655;48.744;9.162;2023-05-11T10:07:55;95877.25;;;13.86;100.00
11198;BME280;5655;48.744;9.162;2023-05-11T10:10:22;95873.69;;;13.99;100.00
11198;BME280;5655;48.744;9.162;2023-05-11T10:12:48;95879.91;;;13.89;100.00
11198;BME280;5655;48.744;9.162;2023-05-11T10:15:14;95887.25;;;13.89;100.00
11198;BME280;5655;48.744;9.162;2023-05-11T10:17:43;95887.56;;;13.94;100.00
11198;BME280;5655;48.744;9.162;2023-05-11T10:20:09;95891.06;;;13.91;100.00
11198;BME280;5655;48.744;9.162;2023-05-11T10:22:35;95878.03;;;13.83;100.00
11198;BME280;5655;48.744;9.162;2023-05-11T10:25:01;95859.16;;;13.93;100.00
11198;BME280;5655;48.744;9.162;2023-05-11T10:27:27;95867.25;;;13.86;100.00
11198;BME280;5655;48.744;9.162;2023-05-11T10:29:53;95875.63;;;13.99;100.00
11198;BME280;5655;48.744;9.162;2023-05-11T10:32:19;95872.88;;;14.02;100.00
11198;BME280;5655;48.744;9.162;2023-05-11T10:34:46;95867.28;;;14.31;100.00
11198;BME280;5655;48.744;9.162;2023-05-11T10:37:12;95867.09;;;14.07;100.00
11198;BME280;5655;48.744;9.162;2023-05-11T10:39:40;95874.22;;;13.80;100.00
11198;BME280;5655;48.744;9.162;2023-05-11T10:44:58;95875.84;;;14.19;100.00
11198;BME280;5655;48.744;9.162;2023-05-11T10:52:56;95853.09;;;14.27;100.00
11198;BME280;5655;48.744;9.162;2023-05-11T10:55:37;95852.28;;;14.30;100.00
11198;BME280;5655;48.744;9.162;2023-05-11T10:58:14;95842.25;;;14.34;100.00
11198;BME280;5655;48.744;9.162;2023-05-11T11:03:30;95856.59;;;14.20;100.00
11198;BME280;5655;48.744;9.162;2023-05-11T11:05:55;95848.53;;;14.24;100.00
11198;BME280;5655;48.744;9.162;2023-05-11T11:08:21;95854.31;;;14.19;100.00
11198;BME280;5655;48.744;9.162;2023-05-11T11:10:47;95855.44;;;14.21;100.00
11198;BME280;5655;48.744;9.162;2023-05-11T11:13:15;95856.94;;;14.26;100.00
11198;BME280;5655;48.744;9.162;2023-05-11T11:18:23;95866.13;;;14.32;100.00
11198;BME280;5655;48.744;9.162;2023-05-11T11:20:53;95865.44;;;14.21;100.00
11198;BME280;5655;48.744;9.162;2023-05-11T11:23:41;95893.22;;;14.11;100.00
11198;BME280;5655;48.744;9.162;2023-05-11T11:26:08;95874.97;;;14.29;100.00
11198;BME280;5655;48.744;9.162;2023-05-11T11:31:28;95876.38;;;13.99;100.00
11198;BME280;5655;48.744;9.162;2023-05-11T11:33:54;95871.13;;;14.30;100.00
11198;BME280;5655;48.744;9.162;2023-05-11T11:42:08;95903.81;;;14.28;100.00
11198;BME280;5655;48.744;9.162;2023-05-11T11:44:34;95900.72;;;14.37;100.00
11198;BME280;5655;48.744;9.162;2023-05-11T11:47:19;95887.53;;;14.46;100.00
11198;BME280;5655;48.744;9.162;2023-05-11T11:49:50;95877.47;;;14.57;100.00
11198;BME280;5655;48.744;9.162;2023-05-11T11:54:52;95877.25;;;14.78;100.00
11198;BME280;5655;48.744;9.162;2023-05-11T11:57:41;95893.47;;;14.71;100.00
11198;BME280;5655;48.744;9.162;2023-05-11T12:00:08;95876.84;;;14.76;100.00
11198;BME280;5655;48.744;9.162;2023-05-11T12:02:44;95884.00;;;14.93;100.00
11198;BME280;5655;48.744;9.162;2023-05-11T12:05:17;95887.88;;;14.92;100.00
11198;BME280;5655;48.744;9.162;2023-05-11T12:07:45;95879.22;;;14.74;100.00
11198;BME280;5655;48.744;9.162;2023-05-11T12:10:29;95866.03;;;14.83;100.00
11198;BME280;5655;48.744;9.162;2023-05-11T12:12:55;95884.00;;;14.93;100.00
11198;BME280;5655;48.744;9.162;2023-05-11T12:15:26;95889.56;;;14.76;100.00
11198;BME280;5655;48.744;9.162;2023-05-11T12:17:53;95891.19;;;15.04;100.00
11198;BME280;5655;48.744;9.162;2023-05-11T12:20:19;95882.97;;;15.18;100.00
11198;BME280;5655;48.744;9.162;2023-05-11T12:22:44;95892.91;;;15.21;100.00
11198;BME280;5655;48.744;9.162;2023-05-11T12:25:12;95905.84;;;15.03;100.00
11198;BME280;5655;48.744;9.162;2023-05-11T12:27:52;95901.38;;;15.23;100.00
11198;BME280;5655;48.744;9.162;2023-05-11T12:30:29;95894.03;;;14.89;100.00
11198;BME280;5655;48.744;9.162;2023-05-11T12:32:55;95900.69;;;15.15;100.00
11198;BME280;5655;48.744;9.162;2023-05-11T12:35:30;95909.19;;;15.14;100.00
11198;BME280;5655;48.744;9.162;2023-05-11T12:37:58;95906.78;;;15.19;100.00
11198;BME280;5655;48.744;9.162;2023-05-11T12:40:23;95897.94;;;15.19;100.00
11198;BME280;5655;48.744;9.162;2023-05-11T12:42:53;95894.41;;;15.25;100.00
11198;BME280;5655;48.744;9.162;2023-05-11T12:45:20;95886.72;;;15.24;100.00
11198;BME280;5655;48.744;9.162;2023-05-11T12:47:48;95878.28;;;15.22;100.00
11198;BME280;5655;48.744;9.162;2023-05-11T12:50:14;95882.75;;;15.02;100.00
11198;BME280;5655;48.744;9.162;2023-05-11T12:52:40;95892.63;;;14.78;100.00
11198;BME280;5655;48.744;9.162;2023-05-11T12:55:05;95885.66;;;14.80;100.00
11198;BME280;5655;48.744;9.162;2023-05-11T12:57:31;95870.16;;;14.91;100.00
11198;BME280;5655;48.744;9.162;2023-05-11T13:00:23;95866.56;;;15.32;100.00
11198;BME280;5655;48.744;9.162;2023-05-11T13:02:54;95879.47;;;14.87;100.00
11198;BME280;5655;48.744;9.162;2023-05-11T13:05:24;95880.69;;;15.13;100.00
11198;BME280;5655;48.744;9.162;2023-05-11T13:08:03;95859.69;;;15.27;100.00
11198;BME280;5655;48.744;9.162;2023-05-11T13:10:29;95852.81;;;15.26;100.00
11198;BME280;5655;48.744;9.162;2023-05-11T13:12:55;95876.84;;;15.10;100.00
11198;BME280;5655;48.744;9.162;2023-05-11T13:15:23;95868.81;;;15.37;100.00
11198;BME280;5655;48.744;9.162;2023-05-11T13:17:57;95862.00;;;15.29;100.00
11198;BME280;5655;48.744;9.162;2023-05-11T13:20:27;95861.34;;;15.21;100.00
11198;BME280;5655;48.744;9.162;2023-05-11T13:23:13;95859.63;;;15.34;100.00
11198;BME280;5655;48.744;9.162;2023-05-11T13:28:13;95855.00;;;15.35;100.00
11198;BME280;5655;48.744;9.162;2023-05-11T13:30:38;95863.38;;;15.14;100.00
11198;BME280;5655;48.744;9.162;2023-05-11T13:33:04;95867.22;;;15.43;100.00
11198;BME280;5655;48.744;9.162;2023-05-11T13:35:29;95855.34;;;15.37;100.00
11198;BME280;5655;48.744;9.162;2023-05-11T13:37:55;95860.97;;;15.53;100.00
11198;BME280;5655;48.744;9.162;2023-05-11T13:40:21;95855.56;;;15.53;100.00